createdAt,value
2022-12-26T00:01:26.686Z,100927.63
2022-12-26T00:03:55.207Z,100925.81
2022-12-26T00:06:27.046Z,100920.44
2022-12-26T00:08:55.551Z,100915.19
2022-12-26T00:11:24.579Z,100920.56
2022-12-26T00:13:55.785Z,100916.06
2022-12-26T00:16:24.880Z,100919.69
2022-12-26T00:18:53.439Z,100926.00
2022-12-26T00:21:22.546Z,100926.84
2022-12-26T00:23:51.904Z,100929.66
2022-12-26T00:26:21.907Z,100926.84
2022-12-26T00:28:50.407Z,100924.28
2022-12-26T00:31:21.300Z,100928.78
2022-12-26T00:33:50.006Z,100911.84
2022-12-26T00:36:21.246Z,100927.94
2022-12-26T00:38:51.719Z,100922.66
2022-12-26T00:41:21.957Z,100919.13
2022-12-26T00:43:50.277Z,100928.91
2022-12-26T00:46:20.927Z,100940.56
2022-12-26T00:48:49.608Z,100937.88
2022-12-26T00:51:18.333Z,100941.53
2022-12-26T00:53:46.524Z,100945.06
2022-12-26T00:56:16.324Z,100938.84
2022-12-26T00:58:44.576Z,100938.00
2022-12-26T01:01:17.012Z,100943.34
2022-12-26T01:03:46.204Z,100947.84
2022-12-26T01:06:17.626Z,100962.09
2022-12-26T01:08:46.078Z,100971.00
2022-12-26T01:11:37.103Z,100973.69
2022-12-26T01:14:05.497Z,100965.75
2022-12-26T01:16:33.776Z,100962.97
2022-12-26T01:19:01.826Z,100965.44
2022-12-26T01:21:29.771Z,100960.09
2022-12-26T01:23:57.745Z,100969.78
2022-12-26T01:26:27.117Z,100969.47
2022-12-26T01:28:55.212Z,100981.94
2022-12-26T01:31:24.597Z,100982.69
2022-12-26T01:33:52.654Z,100978.97
2022-12-26T01:36:20.726Z,100983.34
2022-12-26T01:38:48.976Z,100963.56
2022-12-26T01:41:20.974Z,100961.66
2022-12-26T01:43:59.160Z,100958.09
2022-12-26T01:46:32.084Z,100968.72
2022-12-26T01:49:03.505Z,100955.34
2022-12-26T01:51:37.958Z,100954.38
2022-12-26T01:54:40.572Z,100949.88
2022-12-26T01:56:57.505Z,100959.63
2022-12-26T01:59:30.204Z,100957.81
2022-12-26T02:02:00.528Z,100966.78
2022-12-26T02:04:50.060Z,100968.53
2022-12-26T02:07:18.661Z,100957.81
2022-12-26T02:09:46.671Z,100962.28
2022-12-26T02:12:36.676Z,100962.28
2022-12-26T02:15:11.500Z,100977.44
2022-12-26T02:17:40.201Z,100969.41
2022-12-26T02:20:18.686Z,100973.91
2022-12-26T02:23:30.379Z,100960.50
2022-12-26T02:26:33.375Z,100959.72
2022-12-26T02:29:55.803Z,100971.28
2022-12-26T02:32:33.928Z,100977.50
2022-12-26T02:35:09.144Z,100982.88
2022-12-26T02:37:52.479Z,100983.84
2022-12-26T02:40:42.775Z,100980.31
2022-12-26T02:43:22.888Z,100981.16
2022-12-26T02:46:21.132Z,100971.41
2022-12-26T02:48:59.185Z,100978.59
2022-12-26T02:51:57.324Z,100979.53
2022-12-26T02:54:47.893Z,100983.94
2022-12-26T02:57:38.562Z,100981.34
2022-12-26T03:00:26.937Z,100984.03
2022-12-26T03:03:18.373Z,100984.03
2022-12-26T03:06:16.857Z,100986.69
2022-12-26T03:09:07.053Z,100974.28
2022-12-26T03:11:58.354Z,100981.34
2022-12-26T03:14:29.975Z,100974.28
2022-12-26T03:17:20.954Z,100975.25
2022-12-26T03:20:02.800Z,100984.13
2022-12-26T03:22:38.370Z,100982.41
2022-12-26T03:25:26.400Z,100978.00
2022-12-26T03:27:55.552Z,100977.13
2022-12-26T03:30:41.630Z,100975.31
2022-12-26T03:33:30.612Z,100976.28
2022-12-26T03:35:58.718Z,100963.84
2022-12-26T03:38:35.849Z,100965.44
2022-12-26T03:41:26.966Z,100972.75
2022-12-26T03:44:38.822Z,100975.41
2022-12-26T03:47:36.122Z,100966.53
2022-12-26T03:50:29.528Z,100974.56
2022-12-26T03:53:21.809Z,100963.84
2022-12-26T03:56:13.847Z,100963.00
2022-12-26T03:59:08.615Z,100975.59
2022-12-26T04:01:58.346Z,100978.28
2022-12-26T04:04:49.125Z,100979.25
2022-12-26T04:07:56.457Z,100983.63
2022-12-26T04:10:58.989Z,100990.91
2022-12-26T04:13:50.509Z,100997.13
2022-12-26T04:16:41.592Z,100996.25
2022-12-26T04:19:27.874Z,101002.53
2022-12-26T04:22:18.565Z,101006.09
2022-12-26T04:25:09.436Z,100998.16
2022-12-26T04:27:55.199Z,101003.50
2022-12-26T04:30:41.962Z,101004.38
2022-12-26T04:33:34.184Z,101017.75
2022-12-26T04:36:26.526Z,101044.53
2022-12-26T04:39:15.655Z,101041.00
2022-12-26T04:42:03.393Z,101028.56
2022-12-26T04:44:33.035Z,101024.19
2022-12-26T04:47:02.624Z,101016.16
2022-12-26T04:49:47.733Z,101022.34
2022-12-26T04:52:16.399Z,101008.13
2022-12-26T04:54:46.631Z,101009.91
2022-12-26T04:57:14.675Z,101011.81
2022-12-26T04:59:42.660Z,101003.69
2022-12-26T05:02:29.810Z,101003.78
2022-12-26T05:05:15.343Z,100996.63
2022-12-26T05:08:00.991Z,100996.63
2022-12-26T05:10:29.700Z,100981.50
2022-12-26T05:12:57.688Z,100970.69
2022-12-26T05:15:25.741Z,100972.63
2022-12-26T05:18:14.105Z,100968.97
2022-12-26T05:20:59.285Z,100975.38
2022-12-26T05:23:47.024Z,100980.72
2022-12-26T05:26:37.365Z,100986.09
2022-12-26T05:29:05.901Z,100988.75
2022-12-26T05:31:37.342Z,100986.94
2022-12-26T05:34:06.068Z,100982.66
2022-12-26T05:36:38.774Z,100989.84
2022-12-26T05:39:07.216Z,100989.72
2022-12-26T05:41:35.656Z,100991.63
2022-12-26T05:44:03.678Z,100997.88
2022-12-26T05:46:31.725Z,100988.09
2022-12-26T05:49:03.906Z,101004.16
2022-12-26T05:51:33.670Z,100990.75
2022-12-26T05:54:02.278Z,100985.50
2022-12-26T05:56:30.536Z,100989.91
2022-12-26T05:59:00.885Z,100980.25
2022-12-26T06:01:30.941Z,100975.75
2022-12-26T06:04:01.265Z,100970.41
2022-12-26T06:06:29.989Z,100963.31
2022-12-26T06:08:59.620Z,100957.94
2022-12-26T06:11:28.085Z,100953.56
2022-12-26T06:13:56.414Z,100958.91
2022-12-26T06:16:25.023Z,100957.19
2022-12-26T06:18:54.991Z,100963.41
2022-12-26T06:21:26.383Z,100970.59
2022-12-26T06:23:54.495Z,100976.81
2022-12-26T06:26:23.960Z,100974.22
2022-12-26T06:28:52.106Z,100962.66
2022-12-26T06:31:22.888Z,100961.78
2022-12-26T06:33:52.384Z,100965.41
2022-12-26T06:36:23.941Z,100977.84
2022-12-26T06:38:52.856Z,100977.84
2022-12-26T06:41:23.945Z,100978.81
2022-12-26T06:43:52.718Z,100982.34
2022-12-26T06:46:25.866Z,100985.13
2022-12-26T06:48:54.551Z,100989.63
2022-12-26T06:51:24.493Z,100995.84
2022-12-26T06:53:54.308Z,101007.41
2022-12-26T06:56:25.781Z,101009.28
2022-12-26T06:58:54.990Z,101015.53
2022-12-26T07:01:23.900Z,101013.78
2022-12-26T07:03:53.554Z,101025.47
2022-12-26T07:06:25.155Z,101014.75
2022-12-26T07:08:55.779Z,101019.34
2022-12-26T07:11:27.000Z,101017.44
2022-12-26T07:13:56.115Z,101022.03
2022-12-26T07:16:24.993Z,101014.88
2022-12-26T07:18:53.638Z,101014.00
2022-12-26T07:21:22.361Z,101016.69
2022-12-26T07:23:50.670Z,101014.06
2022-12-26T07:26:19.244Z,101018.47
2022-12-26T07:28:49.114Z,101015.03
2022-12-26T07:31:18.040Z,101022.09
2022-12-26T07:33:48.681Z,101031.97
2022-12-26T07:36:16.952Z,101037.31
2022-12-26T07:38:44.949Z,101033.78
2022-12-26T07:41:30.187Z,101035.59
2022-12-26T07:43:59.560Z,101034.63
2022-12-26T07:46:27.758Z,101028.44
2022-12-26T07:48:55.828Z,101018.56
2022-12-26T07:51:23.820Z,101015.03
2022-12-26T07:53:51.853Z,101022.22
2022-12-26T07:56:19.810Z,101010.66
2022-12-26T07:58:49.638Z,101017.81
2022-12-26T08:01:19.853Z,101021.34
2022-12-26T08:03:49.435Z,101016.94
2022-12-26T08:06:17.568Z,101009.78
2022-12-26T08:08:50.536Z,101016.06
2022-12-26T08:11:21.477Z,101021.44
2022-12-26T08:13:52.616Z,101026.78
2022-12-26T08:16:22.185Z,101023.19
2022-12-26T08:18:52.997Z,101018.75
2022-12-26T08:21:21.056Z,101027.63
2022-12-26T08:23:49.226Z,101023.34
2022-12-26T08:26:22.489Z,101037.50
2022-12-26T08:28:51.929Z,101036.63
2022-12-26T08:31:21.720Z,101036.63
2022-12-26T08:33:49.901Z,101037.50
2022-12-26T08:36:20.116Z,101035.78
2022-12-26T08:38:48.173Z,101035.78
2022-12-26T08:41:17.679Z,101040.28
2022-12-26T08:46:39.259Z,101015.31
2022-12-26T08:49:07.292Z,101015.31
2022-12-26T08:51:35.747Z,101012.66
2022-12-26T08:54:03.896Z,101018.00
2022-12-26T08:56:32.092Z,101022.50
2022-12-26T08:59:00.037Z,101022.38
2022-12-26T09:01:30.270Z,101024.22
2022-12-26T09:04:02.092Z,101033.22
2022-12-26T09:06:32.669Z,101043.91
2022-12-26T09:09:01.067Z,101039.41
2022-12-26T09:11:29.633Z,101038.56
2022-12-26T09:13:59.884Z,101043.03
2022-12-26T09:16:35.622Z,101044.78
2022-12-26T09:19:07.785Z,101043.03
2022-12-26T09:21:35.775Z,101043.91
2022-12-26T09:24:07.244Z,101047.44
2022-12-26T09:26:35.344Z,101042.09
2022-12-26T09:29:04.140Z,101043.91
2022-12-26T09:31:36.925Z,101059.09
2022-12-26T09:34:07.809Z,101058.16
2022-12-26T09:36:38.799Z,101059.97
2022-12-26T09:39:07.865Z,101071.53
2022-12-26T09:41:58.460Z,101074.22
2022-12-26T09:44:36.819Z,101074.22
2022-12-26T09:47:16.308Z,101080.50
2022-12-26T09:49:55.154Z,101087.59
2022-12-26T09:52:28.322Z,101082.25
2022-12-26T09:55:01.551Z,101081.41
2022-12-26T09:57:37.456Z,101085.84
2022-12-26T10:00:17.554Z,101081.41
2022-12-26T10:02:49.660Z,101088.47
2022-12-26T10:05:19.260Z,101089.22
2022-12-26T10:07:52.789Z,101099.94
2022-12-26T10:10:27.507Z,101106.94
2022-12-26T10:13:06.142Z,101115.81
2022-12-26T10:15:44.483Z,101116.69
2022-12-26T10:18:30.230Z,101121.28
2022-12-26T10:21:17.224Z,101168.63
2022-12-26T10:23:46.955Z,101171.38
2022-12-26T10:26:19.288Z,101177.50
2022-12-26T10:28:50.662Z,101181.03
2022-12-26T10:31:23.773Z,101189.19
2022-12-26T10:33:57.281Z,101187.44
2022-12-26T10:36:33.725Z,101186.66
2022-12-26T10:39:04.597Z,101188.47
2022-12-26T10:41:38.947Z,101184.91
2022-12-26T10:44:12.662Z,101187.59
2022-12-26T10:47:05.927Z,101185.00
2022-12-26T10:49:33.930Z,101185.00
2022-12-26T10:52:04.204Z,101175.28
2022-12-26T10:54:33.280Z,101189.50
2022-12-26T10:57:03.045Z,101198.31
2022-12-26T10:59:41.500Z,101207.28
2022-12-26T11:02:16.756Z,101221.63
2022-12-26T11:05:16.032Z,101227.84
2022-12-26T11:07:56.027Z,101244.00
2022-12-26T11:10:27.609Z,101244.00
2022-12-26T11:12:57.687Z,101241.34
2022-12-26T11:15:32.147Z,101255.47
2022-12-26T11:18:16.066Z,101259.97
2022-12-26T11:20:45.383Z,101259.13
2022-12-26T11:23:24.180Z,101272.50
2022-12-26T11:25:54.949Z,101276.03
2022-12-26T11:28:29.730Z,101284.94
2022-12-26T11:30:58.457Z,101291.25
2022-12-26T11:33:30.451Z,101285.91
2022-12-26T11:36:11.722Z,101285.91
2022-12-26T11:38:54.330Z,101287.72
2022-12-26T11:41:39.879Z,101287.72
2022-12-26T11:44:20.643Z,101301.09
2022-12-26T11:46:52.585Z,101300.13
2022-12-26T11:49:26.335Z,101310.09
2022-12-26T11:51:59.161Z,101306.44
2022-12-26T11:54:49.488Z,101322.50
2022-12-26T11:57:22.266Z,101312.66
2022-12-26T11:59:52.673Z,101320.69
2022-12-26T12:02:27.861Z,101332.38
2022-12-26T12:05:00.137Z,101324.34
2022-12-26T12:07:38.185Z,101327.00
2022-12-26T12:10:31.398Z,101333.22
2022-12-26T12:13:10.973Z,101325.19
2022-12-26T12:15:45.500Z,101333.22
2022-12-26T12:18:21.366Z,101327.00
2022-12-26T12:21:00.851Z,101327.94
2022-12-26T12:23:47.173Z,101326.22
2022-12-26T12:26:21.538Z,101324.41
2022-12-26T12:29:17.617Z,101332.44
2022-12-26T12:31:58.731Z,101337.78
2022-12-26T12:34:37.888Z,101341.31
2022-12-26T12:37:20.995Z,101348.44
2022-12-26T12:39:59.748Z,101345.81
2022-12-26T12:42:41.487Z,101347.63
2022-12-26T12:45:27.190Z,101360.16
2022-12-26T12:48:09.674Z,101370.00
2022-12-26T12:50:45.917Z,101361.00
2022-12-26T12:53:27.786Z,101372.69
2022-12-26T12:56:16.783Z,101376.22
2022-12-26T12:58:57.586Z,101374.41
2022-12-26T13:01:29.607Z,101377.19
2022-12-26T13:04:06.657Z,101375.34
2022-12-26T13:06:39.843Z,101379.84
2022-12-26T13:09:13.716Z,101380.72
2022-12-26T13:11:46.646Z,101386.06
2022-12-26T13:14:21.753Z,101391.41
2022-12-26T13:16:55.218Z,101388.84
2022-12-26T13:19:26.619Z,101388.75
2022-12-26T13:22:01.813Z,101385.22
2022-12-26T13:24:34.232Z,101386.06
2022-12-26T13:27:08.695Z,101394.00
2022-12-26T13:29:40.460Z,101393.16
2022-12-26T13:32:19.269Z,101393.16
2022-12-26T13:34:48.292Z,101395.91
2022-12-26T13:37:56.584Z,101401.28
2022-12-26T13:40:28.813Z,101402.13
2022-12-26T13:43:15.868Z,101409.31
2022-12-26T13:45:56.532Z,101408.34
2022-12-26T13:49:08.136Z,101416.47
2022-12-26T13:51:58.212Z,101422.69
2022-12-26T13:54:28.993Z,101425.38
2022-12-26T13:57:28.088Z,101425.44
2022-12-26T14:00:15.821Z,101426.38
2022-12-26T14:03:21.739Z,101421.19
2022-12-26T14:06:08.166Z,101437.66
2022-12-26T14:08:52.998Z,101438.63
2022-12-26T14:11:43.144Z,101453.47
2022-12-26T14:14:23.703Z,101454.09
2022-12-26T14:17:05.587Z,101463.69
2022-12-26T14:19:47.650Z,101468.03
2022-12-26T14:22:27.824Z,101471.59
2022-12-26T14:25:05.985Z,101468.91
2022-12-26T14:27:41.921Z,101476.00
2022-12-26T14:30:23.816Z,101469.75
2022-12-26T14:33:16.030Z,101473.25
2022-12-26T14:36:09.120Z,101471.44
2022-12-26T14:38:45.848Z,101479.38
2022-12-26T14:41:29.996Z,101477.59
2022-12-26T14:43:58.607Z,101483.84
2022-12-26T14:47:02.918Z,101481.97
2022-12-26T14:49:42.123Z,101496.22
2022-12-26T14:52:43.353Z,101494.41
2022-12-26T14:55:56.883Z,101502.44
2022-12-26T14:58:43.865Z,101506.06
2022-12-26T15:01:51.240Z,101516.63
2022-12-26T15:04:48.562Z,101518.34
2022-12-26T15:07:44.311Z,101528.09
2022-12-26T15:10:32.557Z,101530.94
2022-12-26T15:13:33.217Z,101533.72
2022-12-26T15:16:17.327Z,101547.00
2022-12-26T15:19:28.623Z,101552.34
2022-12-26T15:22:26.812Z,101563.06
2022-12-26T15:25:19.203Z,101568.41
2022-12-26T15:28:15.420Z,101572.91
2022-12-26T15:31:14.209Z,101572.84
2022-12-26T15:33:47.760Z,101579.06
2022-12-26T15:36:28.955Z,101577.25
2022-12-26T15:39:02.915Z,101580.88
2022-12-26T15:41:40.282Z,101585.19
2022-12-26T15:44:25.882Z,101588.72
2022-12-26T15:47:05.856Z,101594.03
2022-12-26T15:49:51.241Z,101605.59
2022-12-26T15:52:29.263Z,101601.97
2022-12-26T15:55:13.454Z,101601.03
2022-12-26T15:57:51.604Z,101598.28
2022-12-26T16:00:24.114Z,101600.00
2022-12-26T16:03:07.872Z,101613.31
2022-12-26T16:05:46.959Z,101624.81
2022-12-26T16:08:44.072Z,101623.88
2022-12-26T16:11:18.955Z,101637.19
2022-12-26T16:13:56.042Z,101639.78
2022-12-26T16:16:34.942Z,101637.91
2022-12-26T16:19:17.302Z,101644.03
2022-12-26T16:22:07.503Z,101636.88
2022-12-26T16:24:37.723Z,101643.09
2022-12-26T16:27:08.439Z,101644.75
2022-12-26T16:29:46.024Z,101648.31
2022-12-26T16:32:19.265Z,101654.53
2022-12-26T16:34:48.318Z,101650.03
2022-12-26T16:37:20.253Z,101649.97
2022-12-26T16:40:16.026Z,101653.50
2022-12-26T16:42:45.796Z,101657.91
2022-12-26T16:45:19.760Z,101660.59
2022-12-26T16:47:49.902Z,101662.31
2022-12-26T16:50:20.361Z,101670.34
2022-12-26T16:52:50.758Z,101678.38
2022-12-26T16:55:34.874Z,101677.47
2022-12-26T16:58:05.398Z,101683.69
2022-12-26T17:00:34.774Z,101681.88
2022-12-26T17:03:10.724Z,101681.78
2022-12-26T17:05:42.757Z,101678.19
2022-12-26T17:08:14.464Z,101686.13
2022-12-26T17:10:48.831Z,101700.31
2022-12-26T17:13:22.645Z,101694.88
2022-12-26T17:15:56.889Z,101698.34
2022-12-26T17:18:42.154Z,101698.34
2022-12-26T17:21:24.561Z,101700.88
2022-12-26T17:24:10.751Z,101704.41
2022-12-26T17:26:40.513Z,101705.25
2022-12-26T17:29:52.839Z,101710.59
2022-12-26T17:32:34.147Z,101715.88
2022-12-26T17:35:08.006Z,101716.72
2022-12-26T17:37:36.309Z,101714.94
2022-12-26T17:40:19.448Z,101727.44
2022-12-26T17:42:51.134Z,101717.63
2022-12-26T17:45:22.438Z,101726.53
2022-12-26T17:47:51.843Z,101717.53
2022-12-26T17:50:23.339Z,101716.59
2022-12-26T17:52:52.234Z,101724.72
2022-12-26T17:55:24.982Z,101724.63
2022-12-26T17:57:53.846Z,101727.25
2022-12-26T18:00:24.743Z,101728.97
2022-12-26T18:02:53.356Z,101723.53
2022-12-26T18:05:22.865Z,101732.41
2022-12-26T18:07:52.964Z,101727.97
2022-12-26T18:10:22.965Z,101730.63
2022-12-26T18:12:51.652Z,101738.69
2022-12-26T18:15:20.831Z,101742.22
2022-12-26T18:17:50.880Z,101745.75
2022-12-26T18:20:21.067Z,101743.13
2022-12-26T18:22:51.420Z,101758.31
2022-12-26T18:25:21.639Z,101759.16
2022-12-26T18:27:51.262Z,101755.69
2022-12-26T18:30:21.983Z,101755.63
2022-12-26T18:32:51.658Z,101768.16
2022-12-26T18:35:20.135Z,101768.16
2022-12-26T18:37:52.226Z,101766.41
2022-12-26T18:40:29.829Z,101775.84
2022-12-26T18:43:00.320Z,101774.75
2022-12-26T18:45:28.382Z,101780.13
2022-12-26T18:47:56.748Z,101794.22
2022-12-26T18:50:25.186Z,101804.72
2022-12-26T18:52:55.022Z,101799.22
2022-12-26T18:55:23.244Z,101806.19
2022-12-26T18:57:51.402Z,101815.88
2022-12-26T19:00:20.742Z,101815.88
2022-12-26T19:02:49.271Z,101824.72
2022-12-26T19:05:19.728Z,101832.66
2022-12-26T19:07:50.762Z,101829.94
2022-12-26T19:10:21.872Z,101831.66
2022-12-26T19:12:52.988Z,101828.88
2022-12-26T19:15:21.128Z,101834.19
2022-12-26T19:17:49.255Z,101846.66
2022-12-26T19:20:20.496Z,101847.44
2022-12-26T19:22:50.098Z,101849.19
2022-12-26T19:25:20.751Z,101840.19
2022-12-26T19:27:49.669Z,101844.59
2022-12-26T19:30:19.642Z,101849.03
2022-12-26T19:32:47.716Z,101854.31
2022-12-26T19:35:17.138Z,101855.97
2022-12-26T19:37:45.607Z,101855.97
2022-12-26T19:40:22.937Z,101859.44
2022-12-26T19:42:54.383Z,101852.25
2022-12-26T19:45:22.637Z,101855.81
2022-12-26T19:47:50.567Z,101867.34
2022-12-26T19:50:18.641Z,101863.69
2022-12-26T19:52:46.588Z,101872.59
2022-12-26T19:55:14.551Z,101875.28
2022-12-26T19:57:45.435Z,101877.97
2022-12-26T20:00:15.338Z,101869.94
2022-12-26T20:02:43.547Z,101878.84
2022-12-26T20:05:11.654Z,101870.72
2022-12-26T20:07:39.834Z,101871.59
2022-12-26T20:10:08.288Z,101872.47
2022-12-26T20:12:36.317Z,101876.88
2022-12-26T20:15:04.439Z,101876.81
2022-12-26T20:17:36.411Z,101883.91
2022-12-26T20:20:04.669Z,101883.91
2022-12-26T20:22:33.266Z,101880.28
2022-12-26T20:25:04.170Z,101882.03
2022-12-26T20:27:33.051Z,101879.34
2022-12-26T20:30:01.022Z,101878.41
2022-12-26T20:32:29.127Z,101879.25
2022-12-26T20:34:58.771Z,101882.81
2022-12-26T20:37:27.075Z,101876.50
2022-12-26T20:39:55.072Z,101875.56
2022-12-26T20:42:23.083Z,101875.56
2022-12-26T20:44:51.130Z,101880.94
2022-12-26T20:47:19.593Z,101884.47
2022-12-26T20:49:47.561Z,101888.03
2022-12-26T20:52:18.573Z,101895.13
2022-12-26T20:54:46.914Z,101889.75
2022-12-26T20:57:14.873Z,101889.75
2022-12-26T20:59:42.922Z,101892.38
2022-12-26T21:02:12.558Z,101895.06
2022-12-26T21:04:40.795Z,101906.66
2022-12-26T21:07:08.844Z,101904.84
2022-12-26T21:09:45.700Z,101912.88
2022-12-26T21:12:14.136Z,101916.44
2022-12-26T21:14:42.266Z,101917.28
2022-12-26T21:17:10.298Z,101915.47
2022-12-26T21:19:38.564Z,101911.06
2022-12-26T21:22:06.561Z,101916.34
2022-12-26T21:24:34.579Z,101913.66
2022-12-26T21:27:04.331Z,101922.56
2022-12-26T21:29:34.534Z,101918.97
2022-12-26T21:32:03.995Z,101923.38
2022-12-26T21:34:33.972Z,101922.41
2022-12-26T21:37:19.655Z,101919.75
2022-12-26T21:39:49.599Z,101930.41
2022-12-26T21:42:19.673Z,101923.22
2022-12-26T21:44:47.738Z,101926.78
2022-12-26T21:47:15.830Z,101938.38
2022-12-26T21:49:43.783Z,101933.00
2022-12-26T21:52:12.216Z,101930.31
2022-12-26T21:54:57.899Z,101944.59
2022-12-26T21:57:27.313Z,101945.44
2022-12-26T21:59:58.418Z,101949.94
2022-12-26T22:02:46.367Z,101952.63
2022-12-26T22:05:15.058Z,101955.31
2022-12-26T22:07:43.256Z,101954.44
2022-12-26T22:10:32.614Z,101956.28
2022-12-26T22:13:02.167Z,101957.13
2022-12-26T22:15:47.523Z,101953.81
2022-12-26T22:18:15.927Z,101952.28
2022-12-26T22:20:44.922Z,101961.13
2022-12-26T22:23:13.758Z,101972.72
2022-12-26T22:25:41.773Z,101978.09
2022-12-26T22:28:11.372Z,101985.19
2022-12-26T22:30:39.316Z,101987.88
2022-12-26T22:33:07.251Z,101986.91
2022-12-26T22:35:35.233Z,101986.06
2022-12-26T22:38:03.193Z,101981.56
2022-12-26T22:40:31.178Z,101983.38
2022-12-26T22:42:59.193Z,101990.56
2022-12-26T22:45:28.566Z,101988.72
2022-12-26T22:47:56.572Z,101987.94
2022-12-26T22:50:24.741Z,101980.78
2022-12-26T22:52:53.048Z,101990.63
2022-12-26T22:55:21.012Z,101996.94
2022-12-26T22:57:52.690Z,101995.19
2022-12-26T23:00:21.063Z,101999.69
2022-12-26T23:02:52.849Z,102002.38
2022-12-26T23:05:21.505Z,101997.94
2022-12-26T23:07:49.919Z,101997.09
2022-12-26T23:10:21.367Z,102011.44
2022-12-26T23:12:50.028Z,102000.72
2022-12-26T23:15:20.730Z,102012.38
2022-12-26T23:18:12.198Z,102015.03
2022-12-26T23:20:58.373Z,102019.53
2022-12-26T23:23:27.180Z,102016.00
2022-12-26T23:25:55.585Z,102007.22
2022-12-26T23:28:40.886Z,102016.09
2022-12-26T23:31:09.172Z,102012.59
2022-12-26T23:33:38.516Z,102016.13
2022-12-26T23:36:07.045Z,102017.09
2022-12-26T23:38:37.268Z,102020.72
2022-12-26T23:41:05.409Z,102018.94
2022-12-26T23:43:34.538Z,102027.00
2022-12-26T23:46:02.524Z,102023.44
2022-12-26T23:48:30.565Z,102022.66
2022-12-26T23:51:03.998Z,102028.94
2022-12-26T23:53:34.667Z,102026.25
2022-12-26T23:56:02.709Z,102019.19
2022-12-26T23:58:30.704Z,102020.13
